Latest Weather Observations for Gosford

IDN60801

Issued at 7:03 am EST Tuesday 26 May 2015 (issued every 30 minutes, with the page automatically refreshed every 10 minutes)

About weather observations | Map of weather stations | Latest weather observations for NSW | Other Formats
Station Details ID: 061425 Name: GOSFORD AWS Lat: -33.44 Lon: 151.36 Height: 7.0 m
Data from the previous 72 hours. | See also: Recent months at Gosford
Date/Time
EST
Temp
°C
App
Temp
°C
Dew
Point
Rel
Hum
%
Delta-T
°C
Wind Press
QNH
hPa
Press
MSL
hPa
Rain
since 9 am
mm
Dir
 
Spd
km/h
Gust
km/h
Spd
kts
Gust
kts
26/07:00am 8.8 6.8 7.3 90 0.7 WNW 7 11 4 6 - - 0.0
26/06:30am 8.2 7.1 7.0 92 0.6 WNW 2 6 1 3 - - 0.0
26/06:00am 8.9 7.6 7.5 91 0.7 WNW 4 7 2 4 - - 0.0
26/05:30am 8.1 6.7 7.2 94 0.4 WNW 4 6 2 3 - - 0.0
26/05:00am 8.7 7.5 8.1 96 0.3 WNW 4 9 2 5 - - 0.0
26/04:30am 8.5 8.1 8.4 99 0.0 CALM 0 2 0 1 - - 0.0
26/04:00am 8.5 8.1 8.2 98 0.1 CALM 0 0 0 0 - - 0.0
26/03:30am 8.6 8.3 8.5 99 0.0 CALM 0 0 0 0 - - 0.0
26/03:00am 8.4 8.0 8.3 99 0.0 CALM 0 2 0 1 - - 0.0
26/02:30am 8.1 7.2 7.8 98 0.1 SSW 2 4 1 2 - - 0.0
26/02:00am 8.6 8.2 8.3 98 0.1 CALM 0 0 0 0 - - 0.0
26/01:30am 8.5 8.1 8.2 98 0.1 CALM 0 0 0 0 - - 0.0
26/01:00am 8.5 8.1 8.1 97 0.2 CALM 0 0 0 0 - - 0.0
26/12:30am 8.5 8.1 8.1 97 0.2 CALM 0 0 0 0 - - 0.0
26/12:00am 8.7 8.3 8.3 97 0.2 CALM 0 0 0 0 - - 0.0
 
Date/Time
EST
Temp
°C
App
Temp
°C
Dew
Point
Rel
Hum
%
Delta-T
°C
Wind Press
QNH
hPa
Press
MSL
hPa
Rain
since 9 am
mm
Dir
 
Spd
km/h
Gust
km/h
Spd
kts
Gust
kts
25/11:30pm 9.2 8.9 8.7 97 0.2 CALM 0 0 0 0 - - 0.0
25/11:00pm 9.2 8.9 8.6 96 0.3 CALM 0 0 0 0 - - 0.0
25/10:30pm 9.9 9.8 9.4 97 0.2 CALM 0 0 0 0 - - 0.0
25/10:00pm 9.8 9.6 9.0 95 0.4 CALM 0 0 0 0 - - 0.0
25/09:30pm 10.6 10.7 10.0 96 0.3 CALM 0 0 0 0 - - 0.0
25/09:00pm 10.6 10.6 9.8 95 0.4 CALM 0 0 0 0 - - 0.0
25/08:30pm 11.3 11.5 10.4 94 0.5 CALM 0 0 0 0 - - 0.0
25/08:00pm 11.8 11.7 10.9 94 0.5 NE 2 2 1 1 - - 0.0
25/07:30pm 12.0 12.2 10.6 91 0.7 CALM 0 2 0 1 - - 0.0
25/07:00pm 12.8 13.1 11.0 89 0.9 CALM 0 0 0 0 - - 0.0
25/06:30pm 13.5 13.9 11.2 86 1.2 CALM 0 0 0 0 - - 0.0
25/06:00pm 14.0 14.5 11.7 86 1.2 CALM 0 0 0 0 - - 0.0
25/05:30pm 14.4 14.8 11.2 81 1.7 CALM 0 0 0 0 - - 0.0
25/05:00pm 15.2 15.7 11.6 79 1.9 CALM 0 0 0 0 - - 0.0
25/04:30pm 16.0 16.6 11.8 76 2.3 CALM 0 2 0 1 - - 0.0
25/04:00pm 17.1 17.2 11.6 70 3.0 NNE 2 4 1 2 - - 0.0
25/03:30pm 18.4 18.8 11.2 63 3.9 CALM 0 0 0 0 - - 0.0
25/03:00pm 17.9 17.0 10.8 63 3.8 NE 6 7 3 4 - - 0.0
25/02:30pm 18.4 16.8 10.3 59 4.3 NE 9 13 5 7 - - 0.0
25/02:00pm 18.6 17.2 9.4 55 4.8 NE 7 11 4 6 - - 0.0
25/01:30pm 18.4 17.1 9.2 55 4.8 NNE 6 9 3 5 - - 0.0
25/01:00pm 18.9 17.4 9.1 53 5.1 N 7 11 4 6 - - 0.0
25/12:30pm 18.9 16.8 8.3 50 5.5 NNE 9 15 5 8 - - 0.0
25/12:00pm 19.1 17.7 9.0 52 5.3 NNE 6 11 3 6 - - 0.0
25/11:30am 18.7 17.6 10.0 57 4.6 NNE 6 9 3 5 - - 0.0
25/11:00am 17.2 17.2 11.2 68 3.2 SSW 2 4 1 2 - - 0.0
25/10:30am 15.3 14.7 10.3 72 2.6 SSE 4 6 2 3 - - 0.0
25/10:00am 15.0 15.4 11.2 78 2.0 CALM 0 4 0 2 - - 0.0
25/09:30am 14.2 14.9 12.1 87 1.1 CALM 0 0 0 0 - - 0.0
25/09:00am 11.5 11.7 10.7 95 0.4 CALM 0 0 0 0 - - 0.0
25/08:30am 10.3 10.4 10.0 98 0.2 CALM 0 0 0 0 - - 0.0
25/08:00am 8.9 8.6 8.8 99 0.0 CALM 0 0 0 0 - - 0.0
25/07:30am 8.1 7.6 7.8 98 0.1 CALM 0 0 0 0 - - 0.0
25/07:00am 7.9 7.3 7.6 98 0.1 CALM 0 0 0 0 - - 0.0
25/06:30am 8.1 7.6 8.0 99 0.0 CALM 0 0 0 0 - - 0.0
25/06:00am 7.9 7.4 7.8 99 0.0 CALM 0 0 0 0 - - 0.0
25/05:30am 7.9 7.3 7.6 98 0.1 CALM 0 0 0 0 - - 0.0
25/05:00am 7.5 6.9 7.2 98 0.1 CALM 0 0 0 0 - - 0.0
25/04:30am 8.0 7.5 7.9 99 0.0 CALM 0 2 0 1 - - 0.0
25/04:00am 8.1 7.6 7.8 98 0.1 CALM 0 4 0 2 - - 0.0
25/03:30am 7.5 6.9 7.2 98 0.1 CALM 0 0 0 0 - - 0.0
25/03:00am 7.4 6.7 7.1 98 0.1 CALM 0 0 0 0 - - 0.0
25/02:30am 7.3 6.6 7.0 98 0.1 CALM 0 0 0 0 - - 0.0
25/02:00am 7.4 6.7 7.0 97 0.2 CALM 0 0 0 0 - - 0.0
25/01:30am 7.9 7.3 7.6 98 0.1 CALM 0 0 0 0 - - 0.0
25/01:00am 8.2 7.7 7.9 98 0.1 CALM 0 0 0 0 - - 0.0
25/12:30am 7.7 6.3 7.4 98 0.1 E 4 6 2 3 - - 0.0
25/12:00am 7.9 7.3 7.6 98 0.1 CALM 0 0 0 0 - - 0.0
 
Date/Time
EST
Temp
°C
App
Temp
°C
Dew
Point
Rel
Hum
%
Delta-T
°C
Wind Press
QNH
hPa
Press
MSL
hPa
Rain
since 9 am
mm
Dir
 
Spd
km/h
Gust
km/h
Spd
kts
Gust
kts
24/11:30pm 8.1 7.6 7.7 97 0.2 CALM 0 0 0 0 - - 0.0
24/11:00pm 7.9 7.3 7.3 96 0.3 CALM 0 0 0 0 - - 0.0
24/10:30pm 8.1 7.5 7.5 96 0.3 CALM 0 0 0 0 - - 0.0
24/10:00pm 8.5 8.1 8.1 97 0.2 CALM 0 0 0 0 - - 0.0
24/09:30pm 8.7 8.3 8.1 96 0.3 CALM 0 0 0 0 - - 0.0
24/09:00pm 8.6 8.1 7.7 94 0.4 CALM 0 0 0 0 - - 0.0
24/08:30pm 9.1 8.7 8.3 95 0.4 CALM 0 0 0 0 - - 0.0
24/08:00pm 9.4 9.1 8.6 95 0.4 CALM 0 0 0 0 - - 0.0
24/07:30pm 9.8 9.6 8.9 94 0.4 CALM 0 0 0 0 - - 0.0
24/07:00pm 10.4 10.3 9.5 94 0.4 CALM 0 0 0 0 - - 0.0
24/06:30pm 10.8 10.7 9.6 92 0.6 CALM 0 0 0 0 - - 0.0
24/06:00pm 11.4 11.3 9.5 88 1.0 CALM 0 0 0 0 - - 0.0
24/05:30pm 12.2 12.2 9.9 86 1.2 CALM 0 0 0 0 - - 0.0
24/05:00pm 13.4 13.4 9.8 79 1.8 CALM 0 0 0 0 - - 0.0
24/04:30pm 14.5 13.7 9.5 72 2.6 N 4 6 2 3 - - 0.0
24/04:00pm 17.2 16.1 8.6 57 4.4 SE 4 6 2 3 - - 0.0
24/03:30pm 17.8 17.1 8.6 55 4.7 S 2 4 1 2 - - 0.0
24/03:00pm 17.8 16.7 8.4 54 4.8 SSW 4 6 2 3 - - 0.0
24/02:30pm 17.9 16.9 8.7 55 4.8 SSW 4 6 2 3 - - 0.0
24/02:00pm 17.8 17.2 8.9 56 4.6 SW 2 6 1 3 - - 0.0
24/01:30pm 17.1 16.1 8.8 58 4.3 SSW 4 6 2 3 - - 0.0
24/01:00pm 17.6 16.8 9.5 59 4.2 WSW 4 7 2 4 - - 0.0
24/12:30pm 16.1 15.2 9.3 64 3.5 S 4 6 2 3 - - 0.0
24/12:00pm 15.7 14.5 9.6 67 3.2 S 6 6 3 3 - - 0.0
24/11:30am 15.5 14.9 9.0 65 3.3 SW 2 6 1 3 - - 0.0
24/11:00am 15.0 13.7 9.1 68 3.0 W 6 13 3 7 - - 0.0
24/10:30am 14.7 13.2 9.3 70 2.8 W 7 13 4 7 - - 0.0
24/10:00am 14.4 12.9 9.2 71 2.7 W 7 11 4 6 - - 0.0
24/09:30am 12.8 11.4 8.7 76 2.0 W 6 9 3 5 - - 0.0
24/09:00am 12.2 10.5 8.3 77 1.9 W 7 11 4 6 - - 0.2
24/08:30am 11.6 9.1 8.1 79 1.7 W 11 17 6 9 - - 0.2
24/08:00am 11.1 9.9 8.0 81 1.5 WNW 4 7 2 4 - - 0.2
24/07:30am 10.4 8.5 7.6 83 1.3 WNW 7 11 4 6 - - 0.2
24/07:00am 10.1 7.8 7.3 83 1.3 W 9 15 5 8 - - 0.2
24/06:30am 10.1 8.2 7.5 84 1.2 W 7 11 4 6 - - 0.2
24/06:00am 10.2 8.3 7.6 84 1.2 W 7 9 4 5 - - 0.2
24/05:30am 10.2 8.3 7.6 84 1.2 W 7 13 4 7 - - 0.2
24/05:00am 10.1 7.1 7.5 84 1.2 W 13 19 7 10 - - 0.2
24/04:30am 10.4 7.8 7.6 83 1.3 W 11 19 6 10 - - 0.2
24/04:00am 10.6 8.0 7.7 82 1.4 W 11 19 6 10 - - 0.2
24/03:30am 10.6 8.0 7.8 83 1.4 W 11 17 6 9 - - 0.2
24/03:00am 10.3 8.5 8.1 86 1.1 W 7 11 4 6 - - 0.2
24/02:30am 10.3 7.4 8.1 86 1.1 W 13 17 7 9 - - 0.2
24/02:00am 9.1 7.5 8.2 94 0.4 W 6 7 3 4 - - 0.2
24/01:30am 8.0 7.1 7.6 97 0.2 W 2 4 1 2 - - 0.2
24/01:00am 7.9 7.3 7.5 97 0.2 CALM 0 0 0 0 - - 0.2
24/12:30am 8.0 7.4 7.4 96 0.3 CALM 0 0 0 0 - - 0.2
24/12:00am 8.4 7.9 8.0 97 0.2 CALM 0 0 0 0 - - 0.2
 
Date/Time
EST
Temp
°C
App
Temp
°C
Dew
Point
Rel
Hum
%
Delta-T
°C
Wind Press
QNH
hPa
Press
MSL
hPa
Rain
since 9 am
mm
Dir
 
Spd
km/h
Gust
km/h
Spd
kts
Gust
kts
23/11:30pm 8.4 7.9 8.0 97 0.2 CALM 0 2 0 1 - - 0.2
23/11:00pm 8.3 7.8 7.7 96 0.3 CALM 0 0 0 0 - - 0.2
23/10:30pm 8.3 7.7 7.5 95 0.4 CALM 0 0 0 0 - - 0.2
23/10:00pm 8.8 8.4 8.2 96 0.3 CALM 0 0 0 0 - - 0.2
23/09:30pm 8.9 8.5 8.1 95 0.4 CALM 0 0 0 0 - - 0.2
23/09:00pm 9.3 8.9 8.2 93 0.5 CALM 0 0 0 0 - - 0.2
23/08:30pm 10.0 9.8 8.9 93 0.5 CALM 0 0 0 0 - - 0.2
23/08:00pm 10.3 10.1 8.9 91 0.7 CALM 0 0 0 0 - - 0.2
23/07:30pm 11.4 10.4 9.0 85 1.2 NW 4 6 2 3 - - 0.2
23/07:00pm 11.6 10.6 9.0 84 1.3 NW 4 4 2 2 - - 0.2
23/06:30pm 11.9 11.4 9.5 85 1.2 W 2 4 1 2 - - 0.2
23/06:00pm 12.6 12.2 9.6 82 1.5 SSW 2 4 1 2 - - 0.2
23/05:30pm 13.0 12.9 9.6 80 1.7 CALM 0 0 0 0 - - 0.2
23/05:00pm 15.5 14.3 9.6 68 3.1 SSW 6 11 3 6 - - 0.2
23/04:30pm 16.2 14.4 9.6 65 3.4 SSW 9 13 5 7 - - 0.2
23/04:00pm 16.8 14.6 9.5 62 3.8 S 11 17 6 9 - - 0.2
23/03:30pm 17.0 14.9 9.9 63 3.7 SSW 11 19 6 10 - - 0.2
23/03:00pm 17.1 14.2 9.5 61 4.0 SSW 15 20 8 11 - - 0.2
23/02:30pm 17.2 13.9 9.6 61 4.0 S 17 28 9 15 - - 0.2
23/02:00pm 17.1 14.2 9.8 62 3.8 SSW 15 22 8 12 - - 0.2
23/01:30pm 16.9 14.9 10.1 64 3.6 SSW 11 19 6 10 - - 0.2
23/01:00pm 16.7 14.6 9.9 64 3.6 WSW 11 17 6 9 - - 0.0
23/12:30pm 16.3 14.1 9.5 64 3.5 SW 11 19 6 10 - - 0.0
23/12:00pm 16.2 14.4 9.6 65 3.4 SW 9 15 5 8 - - 0.0
23/11:30am 16.1 14.3 9.3 64 3.5 SW 9 17 5 9 - - 0.0
23/11:00am 15.4 13.1 9.1 66 3.2 SSW 11 17 6 9 - - 0.0
23/10:30am 14.9 12.5 8.6 66 3.2 SW 11 19 6 10 - - 0.0
23/10:00am 14.3 11.5 8.5 68 2.9 SW 13 22 7 12 - - 0.0
23/09:30am 14.6 12.2 8.8 68 2.9 SW 11 17 6 9 - - 0.0
23/09:00am 13.7 11.3 8.5 71 2.6 SW 11 20 6 11 - - 47.2
23/08:30am 13.1 11.0 8.4 73 2.3 SW 9 17 5 9 - - 47.2
23/08:00am 12.7 9.9 8.4 75 2.1 SW 13 20 7 11 - - 47.2
23/07:30am 12.4 10.3 8.3 76 2.0 WSW 9 15 5 8 - - 47.2

Other Formats:

Comma delimited format used in spreadsheet applications
http://www.bom.gov.au/fwo/IDN60801/IDN60801.94782.axf

JavaScript Object Notation format (JSON) in row-major order
http://www.bom.gov.au/fwo/IDN60801/IDN60801.94782.json